This is the latest recevied weather packets stored in our database for station/object K1BES. If no packets are shown the sender has not sent any weather packets the latest 10 day(s).
| Time | Temp. | Humidity | Pressure | Rain* | Wind** | Luminosity | Snow |
|---|---|---|---|---|---|---|---|
| 1787752148 | 33.33° C | 67% | 1020 hPa | 0 mm | - | 362 W/m² | - |
| 1787751847 | 32.78° C | 69% | 1019.8 hPa | 0 mm | - | 499 W/m² | - |
| 1787751543 | 31.67° C | 73% | 1019.8 hPa | 0 mm | - | 500 W/m² | - |
| 1787751237 | 31.11° C | 74% | 1019.9 hPa | 0 mm | - | 471 W/m² | - |
| 1787750933 | 31.11° C | 73% | 1019.7 hPa | 0 mm | - | 433 W/m² | - |
| 1787750628 | 31.67° C | 73% | 1019.7 hPa | 0 mm | - | 227 W/m² | - |
| 1787750323 | 31.11° C | 75% | 1019.8 hPa | 0 mm | - | 162 W/m² | - |
| 1787750018 | 30.56° C | 77% | 1019.9 hPa | 0 mm | - | 243 W/m² | - |
| 1787749714 | 30.56° C | 76% | 1019.7 hPa | 0 mm | - | 309 W/m² | - |
| 1787749415 | 30.56° C | 77% | 1019.9 hPa | 0 mm | - | 329 W/m² | - |
| 1787749114 | 30° C | 79% | 1020 hPa | 0 mm | - | 263 W/m² | - |
| 1787748809 | 30° C | 79% | 1019.8 hPa | 0 mm | - | 220 W/m² | - |
| 1787748509 | 30° C | 79% | 1019.7 hPa | 0 mm | - | 156 W/m² | - |
| 1787748206 | 29.44° C | 81% | 1019.6 hPa | 0 mm | - | 112 W/m² | - |
| 1787747905 | 28.89° C | 82% | 1019.5 hPa | 0 mm | - | 137 W/m² | - |
| 1787747601 | 28.33° C | 84% | 1019.4 hPa | 0 mm | - | 136 W/m² | - |
| 1787747301 | 27.22° C | 87% | 1019.4 hPa | 0 mm | - | 145 W/m² | - |
| 1787746996 | 26.67° C | 90% | 1019.2 hPa | 0 mm | - | 113 W/m² | - |
| 1787746692 | 25.56° C | 92% | 1018.9 hPa | 0 mm | - | 96 W/m² | - |
| 1787746391 | 25.56° C | 93% | 1019.2 hPa | 0 mm | - | 42 W/m² | - |
| 1787746090 | 25.56° C | 93% | 1018.8 hPa | 0 mm | - | 38 W/m² | - |
| 1787745789 | 25° C | 94% | 1018.8 hPa | 0 mm | - | 36 W/m² | - |
| 1787745489 | 25° C | 94% | 1019.1 hPa | 0 mm | - | 34 W/m² | - |
| 1787745183 | 25° C | 95% | 1018.8 hPa | 0 mm | - | 30 W/m² | - |
| 1787744879 | 24.44° C | 95% | 1018.9 hPa | 0 mm | - | 26 W/m² | - |
* Rain latest hour (hover to see other rain measurements)
** Current wind speed in m/s (hover to see current wind gust speed)